TimeEDT,TemperatureF,Dew PointF,Humidity,Sea Level PressureIn,VisibilityMPH,Wind Direction,Wind SpeedMPH,Gust SpeedMPH,PrecipitationIn,Events,Conditions,WindDirDegrees,DateUTC
12:00 AM,26.6,19.4,74,29.74,15.0,WSW,10.4,-,N/A,,Mostly Cloudy,250,2013-03-23 04:00:00
1:00 AM,26.6,21.2,80,29.73,15.0,West,11.5,18.4,N/A,,Mostly Cloudy,260,2013-03-23 05:00:00
2:00 AM,27,21,71,29.72,15,West,10.4,,,,Partly Cloudy,280,2013-03-23 06:00:00
2:00 AM,26.6,21.2,80,29.72,15.0,West,10.4,-,N/A,,Mostly Cloudy,270,2013-03-23 06:00:00
3:00 AM,26.6,19.4,74,29.70,15.0,West,12.7,-,N/A,,Partly Cloudy,260,2013-03-23 07:00:00
4:00 AM,24.8,21.2,86,29.70,15.0,West,12.7,19.6,N/A,,Partly Cloudy,280,2013-03-23 08:00:00
5:00 AM,24.8,19.4,80,29.70,15.0,West,12.7,19.6,N/A,,Clear,280,2013-03-23 09:00:00
6:00 AM,24.8,19.4,80,29.70,15.0,West,13.8,-,N/A,,Partly Cloudy,270,2013-03-23 10:00:00
7:00 AM,24.8,19.4,80,29.70,15.0,West,13.8,-,N/A,,Mostly Cloudy,260,2013-03-23 11:00:00
8:00 AM,25,19,71,29.70,15,West,16.1,,,,Scattered Clouds,260,2013-03-23 12:00:00
8:00 AM,24.8,19.4,80,29.70,15.0,West,17.3,-,N/A,,Mostly Cloudy,260,2013-03-23 12:00:00
9:00 AM,26.6,19.4,74,29.69,15.0,West,16.1,23.0,N/A,,Mostly Cloudy,270,2013-03-23 13:00:00
10:00 AM,30.2,21.2,69,29.69,30.0,West,21.9,28.8,N/A,,Mostly Cloudy,260,2013-03-23 14:00:00
11:00 AM,32.0,21.2,64,29.68,30.0,West,23.0,-,N/A,,Mostly Cloudy,260,2013-03-23 15:00:00
12:00 PM,33.8,21.2,60,29.68,30.0,West,19.6,-,N/A,,Overcast,260,2013-03-23 16:00:00
1:00 PM,37.4,19.4,48,29.67,15.0,WNW,20.7,31.1,N/A,,Mostly Cloudy,300,2013-03-23 17:00:00
2:00 PM,38,21,37,29.68,15,WNW,18.4,,,,Mostly Cloudy,290,2013-03-23 18:00:00
2:00 PM,37.4,21.2,52,29.68,15.0,West,18.4,28.8,N/A,,Mostly Cloudy,280,2013-03-23 18:00:00
3:00 PM,37.4,21.2,52,29.69,15.0,West,20.7,28.8,N/A,,Overcast,280,2013-03-23 19:00:00
4:00 PM,37.4,21.2,52,29.71,15.0,West,18.4,25.3,N/A,,Overcast,280,2013-03-23 20:00:00
5:00 PM,37.4,23.0,56,29.73,15.0,West,15.0,25.3,N/A,,Overcast,280,2013-03-23 21:00:00
6:00 PM,37.4,21.2,52,29.76,15.0,WNW,17.3,24.2,N/A,Snow,Light Snow Showers,290,2013-03-23 22:00:00
7:00 PM,35.6,23.0,60,29.78,15.0,West,13.8,19.6,N/A,Snow,Light Snow Showers,280,2013-03-23 23:00:00
8:00 PM,36,23,46,29.79,15,West,16.1,,,Snow,Light Snow Showers,270,2013-03-24 00:00:00
8:00 PM,35.6,23.0,60,29.79,15.0,West,15.0,-,N/A,,Overcast,270,2013-03-24 00:00:00
9:00 PM,35.6,23.0,60,29.81,15.0,West,16.1,-,N/A,,Mostly Cloudy,270,2013-03-24 01:00:00
10:00 PM,35.6,23.0,60,29.82,15.0,West,15.0,20.7,N/A,,Overcast,270,2013-03-24 02:00:00
11:00 PM,33.8,23.0,65,29.81,15.0,West,12.7,-,N/A,,Overcast,270,2013-03-24 03:00:00